createdAt,value
2018-02-04T00:01:44.035Z,99054.58
2018-02-04T00:04:09.959Z,99053.66
2018-02-04T00:06:35.941Z,99048.03
2018-02-04T00:09:01.937Z,99055.40
2018-02-04T00:11:27.861Z,99055.70
2018-02-04T00:16:26.196Z,99055.69
2018-02-04T00:18:52.146Z,99058.97
2018-02-04T00:21:18.094Z,99065.50
2018-02-04T00:23:44.046Z,99065.98
2018-02-04T00:26:09.974Z,99063.46
2018-02-04T00:28:35.906Z,99068.55
2018-02-04T00:31:01.826Z,99071.56
2018-02-04T00:33:27.750Z,99067.77
2018-02-04T00:35:53.713Z,99066.22
2018-02-04T00:38:19.658Z,99078.75
2018-02-04T00:40:45.692Z,99068.40
2018-02-04T00:43:11.636Z,99076.38
2018-02-04T00:45:37.591Z,99075.20
2018-02-04T00:48:03.521Z,99080.77
2018-02-04T00:50:29.446Z,99071.08
2018-02-04T00:52:55.400Z,99079.16
2018-02-04T00:55:21.350Z,99082.58
2018-02-04T00:57:47.279Z,99089.98
2018-02-04T01:00:13.239Z,99092.84
2018-02-04T01:02:39.172Z,99096.19
2018-02-04T01:05:05.113Z,99098.26
2018-02-04T01:07:31.053Z,99105.11
2018-02-04T01:09:57.011Z,99102.13
2018-02-04T01:12:22.960Z,99095.70
2018-02-04T01:14:48.926Z,99095.61
2018-02-04T01:17:14.893Z,99095.76
2018-02-04T01:19:40.830Z,99088.91
2018-02-04T01:22:06.761Z,99091.99
2018-02-04T01:24:32.696Z,99094.16
2018-02-04T01:26:58.628Z,99103.27
2018-02-04T01:29:24.559Z,99108.78
2018-02-04T01:31:50.516Z,99107.57
2018-02-04T01:34:16.467Z,99118.33
2018-02-04T01:36:42.392Z,99116.45
2018-02-04T01:39:08.371Z,99119.40
2018-02-04T01:41:34.325Z,99116.70
2018-02-04T01:44:00.257Z,99115.41
2018-02-04T01:46:26.199Z,99118.03
2018-02-04T01:48:52.118Z,99120.42
2018-02-04T01:51:18.051Z,99120.76
2018-02-04T01:53:43.974Z,99119.74
2018-02-04T01:56:09.914Z,99121.05
2018-02-04T01:58:35.837Z,99123.42
2018-02-04T02:01:01.793Z,99117.98
2018-02-04T02:03:27.725Z,99121.52
2018-02-04T02:05:53.711Z,99125.28
2018-02-04T02:08:19.639Z,99126.92
2018-02-04T02:10:45.807Z,99126.66
2018-02-04T02:13:11.737Z,99128.27
2018-02-04T02:15:37.671Z,99129.57
2018-02-04T02:18:03.611Z,99133.84
2018-02-04T02:20:29.560Z,99132.53
2018-02-04T02:22:55.513Z,99116.72
2018-02-04T02:25:21.462Z,99133.32
2018-02-04T02:27:47.387Z,99138.87
2018-02-04T02:30:13.317Z,99140.25
2018-02-04T02:32:39.239Z,99144.34
2018-02-04T02:35:05.170Z,99145.36
2018-02-04T02:37:31.109Z,99144.64
2018-02-04T02:39:57.049Z,99144.16
2018-02-04T02:42:22.990Z,99148.63
2018-02-04T02:44:48.931Z,99142.64
2018-02-04T02:47:14.873Z,99149.68
2018-02-04T02:49:41.055Z,99151.20
2018-02-04T02:52:06.978Z,99156.05
2018-02-04T02:54:32.931Z,99159.15
2018-02-04T02:56:58.885Z,99155.45
2018-02-04T02:59:24.837Z,99163.53
2018-02-04T03:01:50.763Z,99162.75
2018-02-04T03:04:16.707Z,99172.95
2018-02-04T03:06:42.655Z,99174.10
2018-02-04T03:09:08.621Z,99171.61
2018-02-04T03:11:34.547Z,99178.23
2018-02-04T03:14:00.493Z,99178.55
2018-02-04T03:16:26.422Z,99174.60
2018-02-04T03:18:52.375Z,99182.53
2018-02-04T03:21:18.293Z,99180.82
2018-02-04T03:23:44.231Z,99184.45
2018-02-04T03:26:10.161Z,99182.70
2018-02-04T03:28:36.101Z,99187.12
2018-02-04T03:31:02.062Z,99190.80
2018-02-04T03:33:28.003Z,99187.16
2018-02-04T03:35:53.937Z,99192.26
2018-02-04T03:38:19.888Z,99199.70
2018-02-04T03:40:45.825Z,99203.22
2018-02-04T03:43:11.749Z,99209.64
2018-02-04T03:45:37.669Z,99205.10
2018-02-04T03:48:03.619Z,99213.22
2018-02-04T03:50:29.549Z,99217.17
2018-02-04T03:52:55.573Z,99219.64
2018-02-04T03:55:21.497Z,99217.89
2018-02-04T03:57:47.440Z,99221.77
2018-02-04T04:00:13.659Z,99226.94
2018-02-04T04:02:40.309Z,99227.89
2018-02-04T04:05:06.265Z,99233.13
2018-02-04T04:07:32.201Z,99232.36
2018-02-04T04:09:58.129Z,99237.09
2018-02-04T04:12:24.077Z,99247.44
2018-02-04T04:14:50.004Z,99244.00
2018-02-04T04:17:15.941Z,99250.83
2018-02-04T04:19:41.875Z,99250.28
2018-02-04T04:22:07.808Z,99248.27
2018-02-04T04:24:33.731Z,99257.34
2018-02-04T04:26:59.699Z,99256.94
2018-02-04T04:29:25.615Z,99258.92
2018-02-04T04:31:51.564Z,99250.80
2018-02-04T04:34:17.499Z,99264.45
2018-02-04T04:36:43.450Z,99263.53
2018-02-04T04:39:09.399Z,99260.84
2018-02-04T04:41:35.337Z,99259.75
2018-02-04T04:44:01.277Z,99260.34
2018-02-04T04:46:30.807Z,99267.97
2018-02-04T04:48:56.894Z,99272.89
2018-02-04T04:51:22.886Z,99265.24
2018-02-04T04:53:48.810Z,99267.20
2018-02-04T04:56:14.757Z,99276.06
2018-02-04T04:58:40.690Z,99278.83
2018-02-04T05:01:06.626Z,99281.51
2018-02-04T05:03:32.552Z,99286.14
2018-02-04T05:05:58.505Z,99282.25
2018-02-04T05:08:24.449Z,99280.46
2018-02-04T05:10:50.388Z,99289.25
2018-02-04T05:13:16.314Z,99292.69
2018-02-04T05:15:42.238Z,99294.00
2018-02-04T05:18:08.194Z,99288.44
2018-02-04T05:20:34.175Z,99295.41
2018-02-04T05:23:00.104Z,99302.06
2018-02-04T05:25:26.051Z,99299.64
2018-02-04T05:27:51.994Z,99299.27
2018-02-04T05:30:17.958Z,99306.04
2018-02-04T05:32:43.901Z,99315.11
2018-02-04T05:35:09.860Z,99313.63
2018-02-04T05:37:35.818Z,99319.28
2018-02-04T05:40:01.763Z,99329.13
2018-02-04T05:42:28.011Z,99331.10
2018-02-04T05:44:53.965Z,99335.73
2018-02-04T05:47:19.918Z,99342.81
2018-02-04T05:49:45.851Z,99346.59
2018-02-04T05:52:11.834Z,99348.24
2018-02-04T05:54:37.767Z,99362.95
2018-02-04T05:57:03.700Z,99361.70
2018-02-04T05:59:29.668Z,99359.02
2018-02-04T06:01:55.648Z,99364.75
2018-02-04T06:04:21.584Z,99367.33
2018-02-04T06:06:47.507Z,99377.45
2018-02-04T06:09:13.457Z,99376.79
2018-02-04T06:11:39.405Z,99382.89
2018-02-04T06:14:05.369Z,99380.88
2018-02-04T06:16:31.299Z,99384.94
2018-02-04T06:18:57.296Z,99393.25
2018-02-04T06:21:24.021Z,99394.61
2018-02-04T06:23:49.971Z,99402.52
2018-02-04T06:26:15.941Z,99410.82
2018-02-04T06:28:41.868Z,99415.45
2018-02-04T06:31:07.800Z,99417.77
2018-02-04T06:33:33.761Z,99419.02
2018-02-04T06:35:59.695Z,99425.88
2018-02-04T06:38:25.681Z,99431.03
2018-02-04T06:40:51.629Z,99437.98
2018-02-04T06:43:17.590Z,99445.81
2018-02-04T06:45:43.559Z,99448.57
2018-02-04T06:48:09.573Z,99454.41
2018-02-04T06:50:38.973Z,99453.52
2018-02-04T06:53:04.910Z,99462.23
2018-02-04T06:55:30.848Z,99463.51
2018-02-04T06:57:56.786Z,99472.11
2018-02-04T07:00:22.764Z,99471.66
2018-02-04T07:02:48.679Z,99475.33
2018-02-04T07:07:46.671Z,99491.20
2018-02-04T07:10:12.624Z,99492.22
2018-02-04T07:12:38.554Z,99500.06
2018-02-04T07:15:05.568Z,99503.32
2018-02-04T07:17:31.590Z,99510.12
2018-02-04T07:19:57.539Z,99510.51
2018-02-04T07:22:23.507Z,99526.15
2018-02-04T07:24:49.557Z,99528.91
2018-02-04T07:27:15.507Z,99534.44
2018-02-04T07:29:41.455Z,99541.30
2018-02-04T07:32:07.421Z,99541.12
2018-02-04T07:34:33.351Z,99543.78
2018-02-04T07:36:59.285Z,99541.64
2018-02-04T07:39:25.289Z,99554.05
2018-02-04T07:41:51.459Z,99550.87
2018-02-04T07:44:17.388Z,99557.88
2018-02-04T07:46:43.393Z,99555.70
2018-02-04T07:49:10.501Z,99562.49
2018-02-04T07:51:36.755Z,99570.77
2018-02-04T07:54:02.689Z,99572.77
2018-02-04T07:56:28.636Z,99576.17
2018-02-04T07:58:54.628Z,99586.89
2018-02-04T08:01:20.580Z,99590.09
2018-02-04T08:03:46.522Z,99595.70
2018-02-04T08:06:14.548Z,99602.00
2018-02-04T08:08:40.532Z,99602.25
2018-02-04T08:11:06.458Z,99609.92
2018-02-04T08:13:32.485Z,99610.39
2018-02-04T08:15:58.406Z,99615.55
2018-02-04T08:18:24.430Z,99614.36
2018-02-04T08:20:50.358Z,99622.56
2018-02-04T08:23:16.382Z,99615.57
2018-02-04T08:25:42.324Z,99625.20
2018-02-04T08:28:08.280Z,99630.73
2018-02-04T08:30:34.223Z,99636.64
2018-02-04T08:33:00.142Z,99636.53
2018-02-04T08:35:26.082Z,99642.52
2018-02-04T08:37:52.042Z,99649.42
2018-02-04T08:40:17.970Z,99649.38
2018-02-04T08:42:43.970Z,99653.81
2018-02-04T08:45:09.924Z,99655.17
2018-02-04T08:47:35.847Z,99660.04
2018-02-04T08:50:01.866Z,99663.43
2018-02-04T08:52:28.912Z,99666.42
2018-02-04T08:54:54.868Z,99675.70
2018-02-04T08:57:20.819Z,99679.24
2018-02-04T08:59:46.869Z,99687.58
2018-02-04T09:02:12.806Z,99686.74
2018-02-04T09:04:38.734Z,99689.75
2018-02-04T09:07:04.654Z,99697.86
2018-02-04T09:09:30.614Z,99691.59
2018-02-04T09:11:56.554Z,99698.77
2018-02-04T09:14:22.491Z,99703.38
2018-02-04T09:16:48.416Z,99710.86
2018-02-04T09:19:14.476Z,99712.05
2018-02-04T09:21:40.435Z,99719.00
2018-02-04T09:24:06.402Z,99721.81
2018-02-04T09:26:32.318Z,99724.55
2018-02-04T09:28:58.317Z,99736.09
2018-02-04T09:31:24.290Z,99739.58
2018-02-04T09:33:50.328Z,99737.28
2018-02-04T09:36:16.280Z,99741.20
2018-02-04T09:38:42.207Z,99751.47
2018-02-04T09:41:10.314Z,99752.99
2018-02-04T09:43:36.222Z,99757.45
2018-02-04T09:46:02.211Z,99765.31
2018-02-04T09:48:28.228Z,99765.80
2018-02-04T09:50:54.159Z,99768.94
2018-02-04T09:53:20.083Z,99773.27
2018-02-04T09:55:47.045Z,99775.67
2018-02-04T09:58:12.978Z,99784.78
2018-02-04T10:00:38.913Z,99783.28
2018-02-04T10:03:04.890Z,99788.05
2018-02-04T10:05:30.843Z,99788.42
2018-02-04T10:07:56.772Z,99798.59
2018-02-04T10:10:22.720Z,99796.81
2018-02-04T10:12:48.653Z,99800.02
2018-02-04T10:15:14.621Z,99802.14
2018-02-04T10:17:40.606Z,99806.27
2018-02-04T10:20:06.530Z,99804.77
2018-02-04T10:22:32.533Z,99807.70
2018-02-04T10:24:59.245Z,99810.30
2018-02-04T10:27:25.205Z,99809.31
2018-02-04T10:29:51.179Z,99810.66
2018-02-04T10:32:17.141Z,99820.09
2018-02-04T10:34:43.105Z,99812.62
2018-02-04T10:37:10.069Z,99818.53
2018-02-04T10:39:36.043Z,99818.02
2018-02-04T10:42:02.017Z,99825.87
2018-02-04T10:44:28.035Z,99826.02
2018-02-04T10:46:55.086Z,99828.17
2018-02-04T10:49:22.018Z,99828.49
2018-02-04T10:51:48.084Z,99833.27
2018-02-04T10:54:14.046Z,99839.74
2018-02-04T10:56:40.005Z,99838.30
2018-02-04T10:59:05.932Z,99842.86
2018-02-04T11:01:31.873Z,99846.52
2018-02-04T11:03:57.858Z,99849.25
2018-02-04T11:06:23.782Z,99850.16
2018-02-04T11:08:49.705Z,99854.91
2018-02-04T11:11:15.695Z,99860.19
2018-02-04T11:13:41.689Z,99861.03
2018-02-04T11:16:07.603Z,99862.05
2018-02-04T11:18:33.547Z,99872.28
2018-02-04T11:20:59.481Z,99878.31
2018-02-04T11:23:25.409Z,99886.45
2018-02-04T11:25:51.425Z,99883.34
2018-02-04T11:28:17.364Z,99887.87
2018-02-04T11:30:43.302Z,99891.88
2018-02-04T11:33:09.268Z,99900.09
2018-02-04T11:35:35.376Z,99903.64
2018-02-04T11:38:01.976Z,99904.38
2018-02-04T11:40:27.939Z,99908.06
2018-02-04T11:42:53.895Z,99911.92
2018-02-04T11:45:19.822Z,99909.80
2018-02-04T11:47:45.814Z,99905.77
2018-02-04T11:50:11.746Z,99908.02
2018-02-04T11:52:37.748Z,99912.67
2018-02-04T11:55:04.770Z,99914.59
2018-02-04T11:57:30.818Z,99914.78
2018-02-04T11:59:56.776Z,99916.61
2018-02-04T12:02:22.759Z,99919.87
2018-02-04T12:04:48.779Z,99919.77
2018-02-04T12:07:14.732Z,99924.54
2018-02-04T12:09:40.678Z,99928.71
2018-02-04T12:12:06.622Z,99931.64
2018-02-04T12:14:32.592Z,99937.36
2018-02-04T12:16:58.728Z,99938.65
2018-02-04T12:19:24.672Z,99934.72
2018-02-04T12:21:50.668Z,99938.03
2018-02-04T12:24:16.694Z,99940.75
2018-02-04T12:26:42.706Z,99945.89
2018-02-04T12:29:08.669Z,99945.55
2018-02-04T12:31:34.658Z,99951.89
2018-02-04T12:34:00.583Z,99948.16
2018-02-04T12:36:26.525Z,99950.63
2018-02-04T12:38:53.616Z,99955.63
2018-02-04T12:41:19.656Z,99956.17
2018-02-04T12:43:45.601Z,99962.75
2018-02-04T12:46:11.554Z,99962.13
2018-02-04T12:48:37.482Z,99960.83
2018-02-04T12:51:03.410Z,99968.36
2018-02-04T12:53:29.351Z,99972.55
2018-02-04T12:55:55.289Z,99971.91
2018-02-04T12:58:21.294Z,99977.78
2018-02-04T13:00:47.236Z,99981.39
2018-02-04T13:03:13.243Z,99984.55
2018-02-04T13:05:39.207Z,99987.56
2018-02-04T13:08:05.177Z,99991.95
2018-02-04T13:10:31.228Z,99999.13
2018-02-04T13:12:57.164Z,100001.67
2018-02-04T13:15:23.119Z,100005.63
2018-02-04T13:17:49.149Z,100011.20
2018-02-04T13:20:15.083Z,100012.05
2018-02-04T13:22:41.063Z,100020.44
2018-02-04T13:25:06.993Z,100023.27
2018-02-04T13:27:33.031Z,100023.52
2018-02-04T13:29:59.098Z,100026.26
2018-02-04T13:32:25.021Z,100028.20
2018-02-04T13:34:50.961Z,100034.97
2018-02-04T13:37:16.895Z,100041.11
2018-02-04T13:39:43.231Z,100046.55
2018-02-04T13:42:09.174Z,100044.81
2018-02-04T13:44:35.096Z,100052.88
2018-02-04T13:47:01.020Z,100051.29
2018-02-04T13:49:26.953Z,100056.48
2018-02-04T13:51:52.900Z,100063.16
2018-02-04T13:54:18.873Z,100072.38
2018-02-04T13:56:44.812Z,100074.41
2018-02-04T13:59:10.767Z,100078.11
2018-02-04T14:01:36.759Z,100078.11
2018-02-04T14:04:02.740Z,100081.19
2018-02-04T14:06:28.703Z,100081.77
2018-02-04T14:08:54.765Z,100082.88
2018-02-04T14:11:20.721Z,100090.04
2018-02-04T14:13:46.707Z,100090.47
2018-02-04T14:16:12.672Z,100093.01
2018-02-04T14:18:38.625Z,100096.04
2018-02-04T14:21:04.635Z,100094.45
2018-02-04T14:23:30.595Z,100105.11
2018-02-04T14:25:56.534Z,100106.35
2018-02-04T14:28:22.556Z,100111.52
2018-02-04T14:30:48.497Z,100110.63
2018-02-04T14:33:14.477Z,100111.98
2018-02-04T14:35:40.489Z,100119.33
2018-02-04T14:38:06.482Z,100126.24
2018-02-04T14:40:32.411Z,100140.11
2018-02-04T14:42:59.452Z,100137.77
2018-02-04T14:45:25.401Z,100135.27
2018-02-04T14:47:51.369Z,100135.19
2018-02-04T14:50:19.364Z,100136.67
2018-02-04T14:52:45.302Z,100144.00
2018-02-04T14:55:11.298Z,100151.70
2018-02-04T14:57:37.230Z,100155.89
2018-02-04T15:00:03.176Z,100158.31
2018-02-04T15:02:29.114Z,100163.25
2018-02-04T15:04:55.054Z,100162.14
2018-02-04T15:07:21.142Z,100166.52
2018-02-04T15:09:49.186Z,100171.89
2018-02-04T15:12:15.196Z,100185.86
2018-02-04T15:14:42.252Z,100184.16
2018-02-04T15:17:08.254Z,100182.97
2018-02-04T15:19:34.260Z,100190.28
2018-02-04T15:22:00.343Z,100192.17
2018-02-04T15:24:26.292Z,100195.51
2018-02-04T15:26:52.289Z,100200.88
2018-02-04T15:29:18.271Z,100207.92
2018-02-04T15:31:44.629Z,100208.69
2018-02-04T15:34:10.633Z,100210.25
2018-02-04T15:36:36.657Z,100211.72
2018-02-04T15:39:02.675Z,100213.19
2018-02-04T15:41:28.617Z,100214.70
2018-02-04T15:43:55.351Z,100224.63
2018-02-04T15:46:21.331Z,100233.97
2018-02-04T15:48:47.605Z,100239.57
2018-02-04T15:51:13.866Z,100251.03
2018-02-04T15:53:40.550Z,100254.86
2018-02-04T15:56:06.818Z,100254.75
2018-02-04T15:58:34.077Z,100261.13
2018-02-04T16:01:00.468Z,100258.23
2018-02-04T16:03:26.739Z,100269.86
2018-02-04T16:05:58.507Z,100269.39
2018-02-04T16:08:24.734Z,100270.83
2018-02-04T16:10:50.985Z,100280.02
2018-02-04T16:13:17.211Z,100281.11
2018-02-04T16:15:43.527Z,100283.95
2018-02-04T16:18:09.829Z,100288.23
2018-02-04T16:20:36.150Z,100292.89
2018-02-04T16:23:02.129Z,100293.37
2018-02-04T16:25:28.172Z,100300.47
2018-02-04T16:27:54.106Z,100300.63
2018-02-04T16:30:20.107Z,100306.83
2018-02-04T16:32:46.149Z,100301.55
2018-02-04T16:35:12.128Z,100304.05
2018-02-04T16:37:38.135Z,100315.45
2018-02-04T16:40:04.220Z,100313.03
2018-02-04T16:42:30.227Z,100318.87
2018-02-04T16:44:56.165Z,100320.50
2018-02-04T16:47:22.279Z,100318.84
2018-02-04T16:49:48.239Z,100328.98
2018-02-04T16:52:15.030Z,100333.93
2018-02-04T16:54:41.073Z,100336.22
2018-02-04T16:57:07.180Z,100341.04
2018-02-04T17:04:39.472Z,100351.41
2018-02-04T17:07:06.926Z,100348.91
2018-02-04T17:09:33.172Z,100352.71
2018-02-04T17:11:59.230Z,100362.73
2018-02-04T17:14:25.268Z,100366.66
2018-02-04T17:16:51.220Z,100369.54
2018-02-04T17:19:17.244Z,100378.77
2018-02-04T17:21:43.260Z,100380.27
2018-02-04T17:24:09.222Z,100383.06
2018-02-04T17:26:35.212Z,100384.67
2018-02-04T17:29:01.195Z,100371.22
2018-02-04T17:31:27.140Z,100392.02
2018-02-04T17:33:53.089Z,100399.46
2018-02-04T17:36:19.035Z,100391.82
2018-02-04T17:38:44.986Z,100399.02
2018-02-04T17:41:10.962Z,100397.20
2018-02-04T17:43:37.034Z,100404.84
2018-02-04T17:46:03.065Z,100408.02
2018-02-04T17:48:29.084Z,100412.06
2018-02-04T17:50:55.029Z,100409.10
2018-02-04T17:53:21.019Z,100417.30
2018-02-04T17:55:48.161Z,100414.72
2018-02-04T17:58:14.139Z,100418.38
2018-02-04T18:00:40.155Z,100416.06
2018-02-04T18:03:06.127Z,100424.53
2018-02-04T18:05:32.082Z,100423.60
2018-02-04T18:07:58.935Z,100435.36
2018-02-04T18:10:24.878Z,100436.43
2018-02-04T18:12:50.850Z,100437.73
2018-02-04T18:15:16.808Z,100442.30
2018-02-04T18:17:42.755Z,100447.41
2018-02-04T18:20:08.706Z,100452.58
2018-02-04T18:22:34.653Z,100449.70
2018-02-04T18:25:00.637Z,100450.20
2018-02-04T18:27:26.599Z,100457.70
2018-02-04T18:29:52.553Z,100458.19
2018-02-04T18:32:18.527Z,100462.03
2018-02-04T18:34:44.601Z,100465.53
2018-02-04T18:37:10.544Z,100461.55
2018-02-04T18:39:36.493Z,100460.37
2018-02-04T18:42:02.419Z,100464.84
2018-02-04T18:44:28.371Z,100461.71
2018-02-04T18:46:54.319Z,100466.42
2018-02-04T18:49:20.283Z,100467.83
2018-02-04T18:51:46.253Z,100469.07
2018-02-04T18:54:12.213Z,100469.56
2018-02-04T18:56:38.161Z,100470.27
2018-02-04T18:59:04.141Z,100473.29
2018-02-04T19:01:30.133Z,100469.00
2018-02-04T19:03:56.123Z,100476.48
2018-02-04T19:06:22.066Z,100474.87
2018-02-04T19:08:48.349Z,100487.60
2018-02-04T19:11:14.302Z,100480.61
2018-02-04T19:13:40.255Z,100487.50
2018-02-04T19:16:06.235Z,100485.06
2018-02-04T19:18:32.203Z,100494.30
2018-02-04T19:20:58.209Z,100498.59
2018-02-04T19:23:24.175Z,100499.20
2018-02-04T19:25:50.135Z,100492.66
2018-02-04T19:28:16.081Z,100502.17
2018-02-04T19:30:42.038Z,100503.82
2018-02-04T19:33:07.983Z,100505.12
2018-02-04T19:38:05.182Z,100515.93
2018-02-04T19:40:31.114Z,100520.05
2018-02-04T19:42:57.072Z,100527.36
2018-02-04T19:45:23.004Z,100524.40
2018-02-04T19:47:48.990Z,100527.97
2018-02-04T19:50:15.020Z,100526.59
2018-02-04T19:52:41.166Z,100531.38
2018-02-04T19:55:07.381Z,100528.36
2018-02-04T19:57:33.740Z,100539.27
2018-02-04T20:00:00.392Z,100535.92
2018-02-04T20:02:26.917Z,100542.44
2018-02-04T20:04:53.109Z,100542.72
2018-02-04T20:07:19.323Z,100548.87
2018-02-04T20:09:45.551Z,100545.05
2018-02-04T20:12:11.773Z,100551.59
2018-02-04T20:14:38.023Z,100549.41
2018-02-04T20:17:04.284Z,100550.16
2018-02-04T20:19:30.555Z,100549.55
2018-02-04T20:21:56.577Z,100566.52
2018-02-04T20:24:22.562Z,100565.86
2018-02-04T20:26:48.575Z,100558.77
2018-02-04T20:29:14.542Z,100567.23
2018-02-04T20:31:40.549Z,100568.23
2018-02-04T20:34:06.877Z,100567.02
2018-02-04T20:36:32.840Z,100572.25
2018-02-04T20:38:59.109Z,100574.21
2018-02-04T20:41:25.077Z,100577.39
2018-02-04T20:43:51.025Z,100581.83
2018-02-04T20:46:17.004Z,100581.09
2018-02-04T20:48:43.049Z,100585.94
2018-02-04T20:51:09.010Z,100585.86
2018-02-04T20:53:34.985Z,100588.78
2018-02-04T20:56:00.934Z,100591.60
2018-02-04T20:58:26.887Z,100588.64
2018-02-04T21:00:52.837Z,100596.77
2018-02-04T21:03:18.781Z,100590.87
2018-02-04T21:05:44.734Z,100599.62
2018-02-04T21:08:10.762Z,100596.69
2018-02-04T21:10:36.641Z,100601.66
2018-02-04T21:13:02.639Z,100600.44
2018-02-04T21:15:28.589Z,100602.36
2018-02-04T21:17:54.565Z,100606.90
2018-02-04T21:20:20.534Z,100611.20
2018-02-04T21:22:46.489Z,100610.03
2018-02-04T21:25:12.435Z,100617.64
2018-02-04T21:27:38.395Z,100619.87
2018-02-04T21:30:04.421Z,100617.31
2018-02-04T21:32:30.748Z,100610.72
2018-02-04T21:34:56.807Z,100620.91
2018-02-04T21:37:22.768Z,100619.77
2018-02-04T21:39:48.703Z,100629.84
2018-02-04T21:42:14.657Z,100628.20
2018-02-04T21:44:40.598Z,100615.38
2018-02-04T21:47:06.760Z,100629.49
2018-02-04T21:49:32.721Z,100632.60
2018-02-04T21:51:58.659Z,100637.36
2018-02-04T21:54:24.599Z,100633.59
2018-02-04T21:56:50.531Z,100636.48
2018-02-04T21:59:16.502Z,100640.52
2018-02-04T22:01:42.718Z,100641.20
2018-02-04T22:04:08.684Z,100646.77
2018-02-04T22:06:34.604Z,100645.42
2018-02-04T22:09:00.554Z,100649.40
2018-02-04T22:11:26.498Z,100649.32
2018-02-04T22:13:52.453Z,100654.25
2018-02-04T22:16:18.396Z,100660.09
2018-02-04T22:18:44.334Z,100656.97
2018-02-04T22:21:10.276Z,100663.34
2018-02-04T22:23:36.207Z,100656.66
2018-02-04T22:26:02.146Z,100656.25
2018-02-04T22:28:28.090Z,100659.52
2018-02-04T22:30:54.052Z,100658.66
2018-02-04T22:33:19.990Z,100654.84
2018-02-04T22:35:45.917Z,100656.70
2018-02-04T22:38:11.884Z,100663.48
2018-02-04T22:40:37.815Z,100661.45
2018-02-04T22:43:03.810Z,100666.16
2018-02-04T22:45:29.743Z,100661.89
2018-02-04T22:47:55.700Z,100665.12
2018-02-04T22:50:21.646Z,100664.50
2018-02-04T22:52:47.611Z,100666.82
2018-02-04T22:55:13.534Z,100669.92
2018-02-04T22:57:39.470Z,100673.84
2018-02-04T23:00:08.152Z,100683.14
2018-02-04T23:02:34.641Z,100683.24
2018-02-04T23:05:00.575Z,100689.54
2018-02-04T23:07:26.514Z,100689.39
2018-02-04T23:09:52.434Z,100690.42
2018-02-04T23:12:18.451Z,100688.37
2018-02-04T23:14:44.379Z,100691.25
2018-02-04T23:17:10.316Z,100691.84
2018-02-04T23:19:36.263Z,100696.75
2018-02-04T23:22:02.207Z,100701.89
2018-02-04T23:24:28.146Z,100702.60
2018-02-04T23:26:54.083Z,100709.98
2018-02-04T23:29:20.027Z,100705.27
2018-02-04T23:31:45.965Z,100699.55
2018-02-04T23:34:11.907Z,100704.70
2018-02-04T23:36:37.873Z,100704.83
2018-02-04T23:39:03.802Z,100702.08
2018-02-04T23:41:29.774Z,100699.25
2018-02-04T23:43:55.775Z,100700.00
2018-02-04T23:46:21.723Z,100701.90
2018-02-04T23:48:47.661Z,100698.81
2018-02-04T23:51:13.587Z,100694.16
2018-02-04T23:53:39.523Z,100701.84
2018-02-04T23:56:05.484Z,100710.23
2018-02-04T23:58:31.421Z,100709.16
